Time;durP1;ratioP1;P1;durP2;ratioP2;P2;SDS_P1;SDS_P2;PMS_P1;PMS_P2;Temp;Humidity;BMP_temperature;BMP_pressure;BME280_temperature;BME280_humidity;BME280_pressure;Samples;Min_cycle;Max_cycle;Signal;HPM_P1;HPM_P2
2023/07/26 00:01:32;;;;;;;2.15;1.73;;;15.10;99.90;;;;;;5052448;28;20048;-39
2023/07/26 00:03:58;;;;;;;2.60;1.55;;;15.00;99.90;;;;;;5048087;28;20033;-39
2023/07/26 00:06:29;;;;;;;2.00;1.45;;;15.00;99.90;;;;;;5050709;28;20104;-45
2023/07/26 00:08:55;;;;;;;2.13;1.88;;;14.90;99.90;;;;;;5053390;28;20021;-40
2023/07/26 00:11:20;;;;;;;2.30;1.50;;;14.80;99.90;;;;;;5050495;28;20025;-40
2023/07/26 00:13:46;;;;;;;3.53;1.50;;;14.70;99.90;;;;;;5050734;28;20053;-39
2023/07/26 00:16:12;;;;;;;2.45;1.35;;;14.70;99.90;;;;;;5049506;28;20112;-38
2023/07/26 00:18:39;;;;;;;2.35;1.58;;;14.60;99.90;;;;;;5045790;28;20048;-39
2023/07/26 00:21:06;;;;;;;2.25;1.63;;;14.60;99.90;;;;;;5048380;28;20119;-39
2023/07/26 00:23:32;;;;;;;3.05;1.40;;;14.60;99.90;;;;;;5053761;28;20214;-39
2023/07/26 00:25:57;;;;;;;4.38;1.38;;;14.50;99.90;;;;;;5054745;28;20531;-49
2023/07/26 00:28:23;;;;;;;2.40;1.98;;;14.40;99.90;;;;;;5054310;28;20044;-41
2023/07/26 00:30:49;;;;;;;5.15;1.70;;;14.50;99.90;;;;;;5052103;28;20053;-39
2023/07/26 00:33:15;;;;;;;6.40;2.25;;;14.50;99.90;;;;;;5053122;28;20496;-39
2023/07/26 00:35:42;;;;;;;2.00;1.65;;;14.50;99.90;;;;;;5035562;28;20033;-39
2023/07/26 00:38:07;;;;;;;2.22;1.90;;;14.50;99.90;;;;;;5048167;28;20474;-40
2023/07/26 00:40:33;;;;;;;2.67;1.60;;;14.50;99.90;;;;;;5054957;28;20021;-39
2023/07/26 00:42:59;;;;;;;2.92;1.77;;;14.40;99.90;;;;;;5055254;28;20036;-39
2023/07/26 00:45:27;;;;;;;2.53;2.00;;;14.40;99.90;;;;;;5055254;28;20063;-53
2023/07/26 00:47:52;;;;;;;;;;;14.40;99.90;;;;;;5054567;28;20036;-51
2023/07/26 00:50:19;;;;;;;2.03;1.60;;;14.40;99.90;;;;;;5054999;28;20366;-50
2023/07/26 00:52:45;;;;;;;2.65;1.73;;;14.30;99.90;;;;;;5054681;28;20029;-52
2023/07/26 00:55:12;;;;;;;2.13;1.92;;;14.30;99.90;;;;;;5053213;28;20061;-60
2023/07/26 00:57:39;;;;;;;2.80;2.45;;;14.20;99.90;;;;;;5054072;28;20448;-52
2023/07/26 01:00:06;;;;;;;2.45;2.00;;;14.20;99.90;;;;;;5054931;28;20037;-51
2023/07/26 01:02:32;;;;;;;3.90;2.47;;;14.10;99.90;;;;;;5054694;28;20025;-54
2023/07/26 01:04:58;;;;;;;2.55;2.35;;;14.10;99.90;;;;;;5052943;28;20087;-52
2023/07/26 01:07:30;;;;;;;3.45;1.92;;;14.10;99.90;;;;;;5054576;28;20059;-51
2023/07/26 01:10:17;;;;;;;2.60;2.40;;;14.10;99.90;;;;;;5054647;28;20107;-51
2023/07/26 01:12:49;;;;;;;2.80;2.00;;;14.00;99.90;;;;;;5054154;28;20032;-51
2023/07/26 01:15:16;;;;;;;2.88;2.60;;;14.00;99.90;;;;;;5053400;28;20025;-52
2023/07/26 01:17:41;;;;;;;2.92;2.22;;;14.00;99.90;;;;;;5054702;28;20449;-50
2023/07/26 01:20:07;;;;;;;5.00;2.38;;;13.90;99.90;;;;;;5053865;28;20025;-48
2023/07/26 01:22:33;;;;;;;7.65;2.75;;;13.90;99.90;;;;;;5053867;28;20036;-49
2023/07/26 01:24:58;;;;;;;5.10;2.92;;;13.90;99.90;;;;;;5053634;28;20021;-48
2023/07/26 01:27:24;;;;;;;3.55;2.60;;;13.90;99.90;;;;;;5054261;28;20021;-52
2023/07/26 01:29:54;;;;;;;3.63;2.40;;;13.80;99.90;;;;;;5053471;28;20444;-52
2023/07/26 01:32:22;;;;;;;3.15;2.33;;;13.70;99.90;;;;;;5051418;28;20036;-50
2023/07/26 01:34:47;;;;;;;5.03;2.58;;;13.70;99.90;;;;;;5052337;28;20055;-53
2023/07/26 01:37:14;;;;;;;2.80;2.50;;;13.70;99.90;;;;;;5051382;28;20056;-51
2023/07/26 01:39:40;;;;;;;2.80;2.45;;;13.60;99.90;;;;;;5051758;28;20074;-49
2023/07/26 01:42:06;;;;;;;4.88;2.33;;;13.60;99.90;;;;;;5053473;28;20104;-52
2023/07/26 01:44:36;;;;;;;4.13;2.80;;;13.50;99.90;;;;;;5049008;28;20497;-62
2023/07/26 01:47:02;;;;;;;4.47;2.63;;;13.50;99.90;;;;;;5050487;28;20028;-50
2023/07/26 01:49:28;;;;;;;2.75;2.38;;;13.50;99.90;;;;;;5051789;28;20057;-46
2023/07/26 01:51:54;;;;;;;4.30;2.97;;;13.50;99.90;;;;;;5046733;28;20506;-52
2023/07/26 01:54:20;;;;;;;4.80;3.08;;;13.50;99.90;;;;;;5048755;28;20036;-51
2023/07/26 01:56:46;;;;;;;4.50;2.83;;;13.50;99.90;;;;;;5052365;28;20382;-53
2023/07/26 01:59:12;;;;;;;4.60;2.60;;;13.50;99.90;;;;;;5051538;28;20036;-52
2023/07/26 02:01:37;;;;;;;3.15;2.75;;;13.50;99.90;;;;;;5055039;28;20033;-52
2023/07/26 02:04:03;;;;;;;5.32;2.72;;;13.60;99.90;;;;;;5052536;28;20029;-49
2023/07/26 02:06:29;;;;;;;3.47;2.72;;;13.60;99.90;;;;;;5062326;28;20029;-49
2023/07/26 02:08:55;;;;;;;3.53;2.53;;;13.60;99.90;;;;;;5053643;28;20021;-50
2023/07/26 02:11:21;;;;;;;5.15;2.60;;;13.60;99.90;;;;;;5053465;28;20021;-53
2023/07/26 02:13:46;;;;;;;4.82;2.63;;;13.60;99.90;;;;;;5052928;28;20424;-52
2023/07/26 02:16:12;;;;;;;4.63;2.90;;;13.60;99.90;;;;;;5053040;28;20040;-54
2023/07/26 02:18:38;;;;;;;4.47;2.63;;;13.50;99.90;;;;;;5061526;28;20052;-52
2023/07/26 02:21:03;;;;;;;7.60;2.50;;;13.50;99.90;;;;;;5053404;28;20097;-52
2023/07/26 02:23:29;;;;;;;3.22;2.80;;;13.50;99.90;;;;;;5053646;28;20119;-51
2023/07/26 02:25:54;;;;;;;3.03;2.38;;;13.40;99.90;;;;;;5051236;28;20021;-51
2023/07/26 02:28:20;;;;;;;3.58;2.40;;;13.40;99.90;;;;;;5053255;28;20115;-49
2023/07/26 02:30:46;;;;;;;3.90;2.38;;;13.40;99.90;;;;;;5049396;28;20018;-51
2023/07/26 02:33:11;;;;;;;5.40;2.42;;;13.40;99.90;;;;;;5053184;28;20029;-51
2023/07/26 02:35:37;;;;;;;7.22;2.60;;;13.40;99.90;;;;;;5053052;28;20036;-51
2023/07/26 02:38:03;;;;;;;5.00;2.15;;;13.40;99.90;;;;;;5053177;28;20096;-46
2023/07/26 02:40:29;;;;;;;4.68;2.75;;;13.40;99.90;;;;;;5053026;28;20040;-52
2023/07/26 02:42:55;;;;;;;4.80;2.38;;;13.40;99.90;;;;;;5052847;28;20055;-51
2023/07/26 02:45:20;;;;;;;3.03;2.25;;;13.40;99.90;;;;;;5053035;28;20033;-53
2023/07/26 02:47:46;;;;;;;2.53;2.33;;;13.40;99.90;;;;;;5052564;28;20080;-53
2023/07/26 02:50:11;;;;;;;4.90;2.17;;;13.40;99.90;;;;;;5053110;28;20013;-52
2023/07/26 02:52:37;;;;;;;4.05;1.80;;;13.40;99.90;;;;;;5052859;28;20052;-49
2023/07/26 02:55:03;;;;;;;4.68;2.65;;;13.40;99.90;;;;;;5052834;28;20017;-52
2023/07/26 02:57:29;;;;;;;4.82;2.17;;;13.40;99.90;;;;;;5052894;28;20071;-51
2023/07/26 02:59:54;;;;;;;2.65;2.40;;;13.40;99.90;;;;;;5052799;28;20390;-53
2023/07/26 03:02:20;;;;;;;2.70;2.10;;;13.40;99.90;;;;;;5052709;28;20021;-50
2023/07/26 03:04:45;;;;;;;4.82;2.45;;;13.30;99.90;;;;;;5051594;28;20341;-52
2023/07/26 03:07:11;;;;;;;3.40;2.63;;;13.30;99.90;;;;;;5052011;28;20067;-51
2023/07/26 03:09:37;;;;;;;3.83;2.47;;;13.30;99.90;;;;;;5050730;28;20025;-51
2023/07/26 03:12:03;;;;;;;4.43;2.50;;;13.30;99.90;;;;;;5051893;28;20048;-52
2023/07/26 03:14:28;;;;;;;3.53;2.47;;;13.20;99.90;;;;;;5052111;28;20114;-50
2023/07/26 03:16:54;;;;;;;3.60;2.50;;;13.20;99.90;;;;;;5050477;28;20374;-51
2023/07/26 03:19:20;;;;;;;2.95;2.15;;;13.20;99.90;;;;;;5050828;28;20064;-49
2023/07/26 03:21:45;;;;;;;3.95;2.58;;;13.10;99.90;;;;;;5051467;28;20032;-48
2023/07/26 03:24:11;;;;;;;3.95;2.40;;;13.10;99.90;;;;;;5050199;28;20534;-54
2023/07/26 03:26:36;;;;;;;2.08;1.88;;;13.10;99.90;;;;;;5052274;28;20021;-52
2023/07/26 03:29:02;;;;;;;6.35;2.70;;;13.10;99.90;;;;;;5051353;28;20029;-52
2023/07/26 03:31:28;;;;;;;6.35;2.72;;;13.10;99.90;;;;;;5049183;28;20461;-52
2023/07/26 03:33:53;;;;;;;3.08;2.50;;;13.10;99.90;;;;;;5051701;28;20025;-51
2023/07/26 03:36:19;;;;;;;3.33;2.72;;;13.10;99.90;;;;;;5051960;28;20476;-45
2023/07/26 03:38:44;;;;;;;5.88;3.13;;;13.10;99.90;;;;;;5058770;28;20043;-47
2023/07/26 03:41:10;;;;;;;3.08;2.50;;;13.10;99.90;;;;;;5061098;28;20037;-48
2023/07/26 03:43:36;;;;;;;3.45;2.50;;;13.20;99.90;;;;;;5052722;28;20513;-51
2023/07/26 03:46:01;;;;;;;3.63;2.63;;;13.30;99.90;;;;;;5055986;28;20052;-50
2023/07/26 03:48:27;;;;;;;6.22;2.97;;;13.30;99.90;;;;;;5054856;28;20021;-50
2023/07/26 03:50:53;;;;;;;5.15;2.33;;;13.40;99.90;;;;;;5054004;28;20028;-50
2023/07/26 03:53:19;;;;;;;3.33;2.63;;;13.50;99.90;;;;;;5068635;28;20414;-51
2023/07/26 03:55:44;;;;;;;4.85;3.20;;;13.50;99.90;;;;;;5055053;28;20447;-51
2023/07/26 03:58:10;;;;;;;3.40;2.45;;;13.60;99.90;;;;;;5055183;28;20035;-59
2023/07/26 04:00:36;;;;;;;4.43;3.17;;;13.60;99.90;;;;;;5053848;28;20025;-51
2023/07/26 04:03:02;;;;;;;3.10;2.63;;;13.70;99.90;;;;;;5060767;28;20032;-47
2023/07/26 04:05:28;;;;;;;5.15;2.90;;;13.70;99.90;;;;;;5054884;28;20036;-49
2023/07/26 04:07:54;;;;;;;8.23;2.40;;;13.80;99.90;;;;;;5055081;28;20481;-50
2023/07/26 04:10:19;;;;;;;5.95;3.05;;;13.80;99.90;;;;;;5053461;28;20032;-52
2023/07/26 04:12:45;;;;;;;7.97;3.08;;;13.90;99.90;;;;;;5062406;28;20021;-52
2023/07/26 04:15:11;;;;;;;4.57;2.83;;;13.90;99.90;;;;;;5052722;28;20470;-52
2023/07/26 04:17:36;;;;;;;3.47;2.58;;;13.90;99.90;;;;;;5056107;28;20067;-51
2023/07/26 04:20:02;;;;;;;2.85;2.63;;;14.00;99.90;;;;;;5058589;28;20032;-52
2023/07/26 04:22:28;;;;;;;4.82;2.92;;;14.00;99.90;;;;;;5063387;28;20115;-51
2023/07/26 04:24:54;;;;;;;4.15;3.00;;;14.00;99.90;;;;;;5057197;28;20474;-53
2023/07/26 04:27:19;;;;;;;4.43;2.60;;;14.10;99.90;;;;;;5054576;28;20025;-49
2023/07/26 04:29:45;;;;;;;4.35;2.75;;;14.10;99.90;;;;;;5062334;28;20399;-48
2023/07/26 04:32:11;;;;;;;5.53;3.08;;;14.20;99.90;;;;;;5053064;28;20494;-48
2023/07/26 04:34:36;;;;;;;5.85;2.92;;;14.20;99.90;;;;;;5054312;28;20576;-53
2023/07/26 04:37:02;;;;;;;3.53;2.60;;;14.20;99.90;;;;;;5056332;28;20029;-52
2023/07/26 04:39:28;;;;;;;6.90;2.80;;;14.30;99.90;;;;;;5057465;28;20405;-48
2023/07/26 04:41:53;;;;;;;4.38;2.75;;;14.30;99.90;;;;;;5053716;28;20542;-51
2023/07/26 04:44:19;;;;;;;4.28;2.85;;;14.40;99.90;;;;;;5050023;28;20084;-50
2023/07/26 04:46:44;;;;;;;4.70;2.70;;;14.40;99.90;;;;;;5054896;28;20108;-52
2023/07/26 04:49:10;;;;;;;3.05;2.25;;;14.50;99.90;;;;;;5050719;28;20028;-47
2023/07/26 04:51:36;;;;;;;3.20;2.80;;;14.50;99.90;;;;;;5062402;28;20016;-52
2023/07/26 04:54:02;;;;;;;8.02;3.08;;;14.60;99.90;;;;;;5067365;28;20083;-50
2023/07/26 04:56:27;;;;;;;6.93;2.90;;;14.60;99.90;;;;;;5052712;28;20029;-51
2023/07/26 04:58:53;;;;;;;4.68;2.30;;;14.60;99.90;;;;;;5054677;28;20017;-50
2023/07/26 05:01:19;;;;;;;2.22;2.00;;;14.70;99.90;;;;;;5054931;28;20028;-51
2023/07/26 05:03:45;;;;;;;4.30;2.17;;;14.70;99.90;;;;;;5054112;28;20033;-54
2023/07/26 05:06:11;;;;;;;3.95;2.83;;;14.80;99.90;;;;;;5055694;28;20416;-49
2023/07/26 05:08:37;;;;;;;4.25;2.45;;;14.90;99.90;;;;;;5055582;28;20067;-50
2023/07/26 05:11:03;;;;;;;2.97;2.58;;;14.90;99.90;;;;;;5052420;28;20049;-53
2023/07/26 05:13:28;;;;;;;3.13;2.20;;;15.00;99.90;;;;;;5055721;28;20017;-53
2023/07/26 05:15:54;;;;;;;4.90;2.60;;;15.10;99.90;;;;;;5053649;28;20040;-49
2023/07/26 05:18:20;;;;;;;2.92;2.65;;;15.10;99.90;;;;;;5053865;28;20028;-53
2023/07/26 05:20:50;;;;;;;6.38;2.53;;;15.20;99.90;;;;;;5053334;28;20524;-50
2023/07/26 05:23:16;;;;;;;4.38;2.65;;;15.30;99.90;;;;;;5053693;28;20117;-52
2023/07/26 05:25:41;;;;;;;6.38;2.30;;;15.30;99.90;;;;;;5053682;28;20108;-51
2023/07/26 05:28:07;;;;;;;6.75;2.75;;;15.40;99.90;;;;;;5052545;28;20025;-51
2023/07/26 05:30:37;;;;;;;2.83;2.40;;;15.40;99.90;;;;;;5053641;28;20389;-53
2023/07/26 05:33:03;;;;;;;3.72;3.33;;;15.40;99.90;;;;;;5066389;28;20029;-50
2023/07/26 05:35:28;;;;;;;10.38;3.25;;;15.50;99.90;;;;;;5053562;28;20025;-51
2023/07/26 05:37:54;;;;;;;3.10;2.53;;;15.50;99.90;;;;;;5061511;28;20055;-52
2023/07/26 05:40:19;;;;;;;5.13;3.38;;;15.50;99.90;;;;;;5065643;28;20082;-50
2023/07/26 05:42:45;;;;;;;4.28;2.65;;;15.40;99.90;;;;;;5043107;28;20374;-52
2023/07/26 05:45:11;;;;;;;6.60;3.45;;;15.40;99.90;;;;;;5049205;28;20045;-52
2023/07/26 05:47:38;;;;;;;6.32;3.20;;;15.50;99.90;;;;;;5052437;28;20171;-53
2023/07/26 05:50:06;;;;;;;4.77;3.37;;;15.40;99.90;;;;;;5054496;28;20095;-53
2023/07/26 05:52:31;;;;;;;3.72;2.40;;;15.40;99.90;;;;;;5051272;28;20021;-52
2023/07/26 05:54:57;;;;;;;5.82;3.17;;;15.30;99.90;;;;;;5066813;28;20085;-52
2023/07/26 05:57:23;;;;;;;8.77;3.88;;;15.30;99.90;;;;;;5057508;28;20049;-51
2023/07/26 05:59:48;;;;;;;5.40;3.95;;;15.30;99.90;;;;;;5068251;28;20508;-52
2023/07/26 06:02:15;;;;;;;5.13;3.03;;;15.20;99.90;;;;;;5053711;28;20539;-49
2023/07/26 06:04:40;;;;;;;5.45;3.38;;;15.20;99.90;;;;;;5052787;28;20028;-49
2023/07/26 06:07:06;;;;;;;8.18;3.72;;;15.10;99.90;;;;;;5045425;28;20494;-45
2023/07/26 06:09:33;;;;;;;7.60;4.45;;;15.10;99.90;;;;;;5047904;28;20460;-50
2023/07/26 06:11:59;;;;;;;14.73;5.25;;;15.10;99.90;;;;;;5052697;28;20032;-52
2023/07/26 06:14:25;;;;;;;8.88;4.40;;;15.00;99.90;;;;;;5050323;28;20029;-46
2023/07/26 06:16:51;;;;;;;4.10;1.90;;;14.90;99.90;;;;;;5051717;28;20067;-44
2023/07/26 06:19:17;;;;;;;2.33;1.75;;;14.60;99.90;;;;;;5050312;28;20032;-51
2023/07/26 06:21:43;;;;;;;6.03;1.70;;;14.30;99.90;;;;;;5051098;28;20021;-51
2023/07/26 06:24:08;;;;;;;3.00;1.40;;;14.00;99.90;;;;;;5051902;28;20056;-50
2023/07/26 06:26:34;;;;;;;4.07;1.80;;;13.70;99.90;;;;;;5049547;28;20032;-49
2023/07/26 06:29:00;;;;;;;2.95;1.00;;;13.50;99.90;;;;;;5050328;28;20029;-51
2023/07/26 06:31:25;;;;;;;1.83;0.90;;;13.30;99.90;;;;;;5048032;28;20382;-48
2023/07/26 06:33:51;;;;;;;0.90;0.90;;;13.20;99.90;;;;;;5048799;28;20485;-49
2023/07/26 06:36:17;;;;;;;1.73;1.00;;;13.00;99.90;;;;;;5049506;28;20033;-53
2023/07/26 06:38:42;;;;;;;4.45;1.58;;;12.90;99.90;;;;;;5052540;28;20087;-51
2023/07/26 06:41:08;;;;;;;1.67;1.05;;;12.90;99.90;;;;;;5052905;28;20389;-51
2023/07/26 06:43:33;;;;;;;0.93;0.82;;;12.90;99.90;;;;;;5050566;28;20544;-53
2023/07/26 06:45:59;;;;;;;3.47;1.13;;;12.90;99.90;;;;;;5051135;28;20026;-49
2023/07/26 06:48:25;;;;;;;1.10;0.88;;;12.80;99.90;;;;;;5049216;28;20099;-53
2023/07/26 06:50:50;;;;;;;3.67;1.10;;;12.80;99.90;;;;;;5051651;28;20025;-52
2023/07/26 06:53:16;;;;;;;2.45;1.13;;;12.80;99.90;;;;;;5052266;28;20021;-52
2023/07/26 06:55:41;;;;;;;2.08;1.13;;;12.80;99.90;;;;;;5049399;28;20037;-51
2023/07/26 06:58:07;;;;;;;1.38;0.85;;;12.80;99.90;;;;;;5052290;28;20099;-50
2023/07/26 07:00:33;;;;;;;1.25;0.93;;;12.80;99.90;;;;;;5050217;28;20473;-54
2023/07/26 07:03:00;;;;;;;1.48;0.90;;;12.90;99.90;;;;;;5051783;28;20121;-54
2023/07/26 07:05:30;;;;;;;0.80;0.77;;;13.00;99.90;;;;;;5050028;28;20362;-50
2023/07/26 07:07:56;;;;;;;1.63;0.75;;;13.30;99.90;;;;;;5041953;28;20036;-54
2023/07/26 07:10:22;;;;;;;1.15;1.00;;;13.70;99.90;;;;;;5049707;28;20373;-52
2023/07/26 07:12:49;;;;;;;2.35;1.30;;;14.20;99.90;;;;;;5050642;28;20029;-53
2023/07/26 07:15:15;;;;;;;1.13;0.70;;;14.60;99.90;;;;;;5048330;28;20017;-52
2023/07/26 07:17:40;;;;;;;0.98;0.80;;;14.50;99.90;;;;;;5048784;28;20478;-54
2023/07/26 07:20:07;;;;;;;0.85;0.70;;;14.80;99.90;;;;;;5062933;28;20033;-53
2023/07/26 07:22:33;;;;;;;3.65;1.17;;;15.80;99.90;;;;;;5055513;28;20033;-55
2023/07/26 07:24:59;;;;;;;1.17;1.00;;;16.90;99.90;;;;;;5052781;28;20013;-55
2023/07/26 07:27:25;;;;;;;1.95;1.10;;;17.60;99.90;;;;;;5054218;28;20040;-53
2023/07/26 07:29:51;;;;;;;1.08;0.85;;;17.60;99.90;;;;;;5052550;28;20021;-52
2023/07/26 07:32:17;;;;;;;1.48;1.17;;;17.30;99.90;;;;;;5048357;28;20029;-53
2023/07/26 07:34:43;;;;;;;1.35;1.25;;;17.40;99.90;;;;;;5050385;28;20025;-51
2023/07/26 07:37:09;;;;;;;1.38;1.00;;;17.50;99.90;;;;;;5047128;28;20029;-53
2023/07/26 07:39:35;;;;;;;2.00;1.70;;;17.40;99.90;;;;;;5049428;28;20048;-52
2023/07/26 07:42:01;;;;;;;4.57;1.83;;;17.30;99.90;;;;;;5056956;28;20370;-50
2023/07/26 07:44:30;;;;;;;1.65;1.30;;;17.20;99.90;;;;;;5050773;28;20091;-53
2023/07/26 07:46:56;;;;;;;2.90;1.80;;;17.10;99.90;;;;;;5059378;28;20474;-53
2023/07/26 07:49:23;;;;;;;3.70;1.70;;;17.10;99.90;;;;;;5051893;28;20028;-53
2023/07/26 07:51:49;;;;;;;4.05;2.55;;;17.20;99.90;;;;;;5046152;28;20060;-52
2023/07/26 07:54:15;;;;;;;4.25;2.30;;;17.40;99.90;;;;;;5031993;28;20037;-47
2023/07/26 07:56:40;;;;;;;2.67;2.28;;;17.50;99.90;;;;;;5043630;28;20047;-50
2023/07/26 07:59:06;;;;;;;5.85;2.92;;;17.70;99.90;;;;;;5032558;28;20029;-51
2023/07/26 08:01:33;;;;;;;2.28;2.08;;;17.90;99.90;;;;;;5046423;28;20036;-53
2023/07/26 08:03:59;;;;;;;5.10;3.20;;;18.10;99.90;;;;;;5052197;28;20466;-50
2023/07/26 08:06:26;;;;;;;4.10;2.58;;;18.30;99.90;;;;;;5052151;28;20029;-52
2023/07/26 08:08:51;;;;;;;3.08;2.75;;;18.50;99.90;;;;;;5050843;28;20544;-50
2023/07/26 08:11:17;;;;;;;3.55;2.90;;;18.70;99.90;;;;;;5051879;28;20155;-52
2023/07/26 08:13:43;;;;;;;3.45;2.45;;;18.90;99.90;;;;;;5046985;28;20021;-52
2023/07/26 08:16:09;;;;;;;4.78;3.40;;;19.10;99.90;;;;;;5047755;28;20036;-52
2023/07/26 08:18:34;;;;;;;6.10;3.50;;;19.30;99.90;;;;;;5051730;28;20107;-48
2023/07/26 08:21:00;;;;;;;3.25;2.63;;;19.50;99.90;;;;;;5051951;28;20410;-50
2023/07/26 08:23:26;;;;;;;4.80;3.10;;;19.70;99.90;;;;;;5052983;28;20078;-52
2023/07/26 08:25:52;;;;;;;5.60;2.65;;;19.90;99.90;;;;;;5053563;28;20535;-53
2023/07/26 08:28:17;;;;;;;3.97;2.40;;;20.10;99.90;;;;;;5052613;28;20119;-51
2023/07/26 08:30:43;;;;;;;3.55;2.00;;;20.30;99.90;;;;;;5051031;28;20473;-47
2023/07/26 08:33:09;;;;;;;2.72;2.30;;;20.50;99.90;;;;;;5042901;28;20371;-52
2023/07/26 08:35:34;;;;;;;3.85;2.53;;;20.30;99.90;;;;;;5035294;28;20022;-51
2023/07/26 08:38:00;;;;;;;3.38;2.60;;;20.50;99.90;;;;;;5052081;28;20155;-50
2023/07/26 08:40:26;;;;;;;3.42;2.25;;;20.40;99.90;;;;;;5055370;28;20025;-50
2023/07/26 08:42:54;;;;;;;6.82;2.38;;;20.10;99.90;;;;;;5054496;28;20056;-50
2023/07/26 08:45:20;;;;;;;5.18;2.17;;;19.80;99.90;;;;;;5055338;28;20031;-46
2023/07/26 08:47:50;;;;;;;5.38;2.25;;;19.30;99.90;;;;;;5050201;28;20104;-47
2023/07/26 08:50:15;;;;;;;4.03;2.40;;;18.90;99.90;;;;;;5049273;28;20091;-48
2023/07/26 08:52:41;;;;;;;2.83;2.55;;;18.50;99.90;;;;;;5041534;28;20033;-49
2023/07/26 08:55:08;;;;;;;7.90;2.25;;;18.10;99.90;;;;;;5055178;28;20024;-46
2023/07/26 08:57:34;;;;;;;5.68;2.83;;;17.80;99.90;;;;;;5046344;28;20074;-48
2023/07/26 09:00:00;;;;;;;3.88;1.90;;;17.70;99.90;;;;;;5047802;28;20100;-46
2023/07/26 09:02:26;;;;;;;3.92;1.80;;;18.00;99.90;;;;;;5050604;28;20029;-49
2023/07/26 09:04:52;;;;;;;5.82;2.60;;;18.60;99.90;;;;;;5048554;28;20031;-47
2023/07/26 09:07:19;;;;;;;4.05;2.30;;;19.00;99.90;;;;;;5051537;28;20384;-51
2023/07/26 09:09:44;;;;;;;8.63;2.60;;;18.90;99.90;;;;;;5054964;28;20539;-48
2023/07/26 09:12:27;;;;;;;3.65;2.00;;;18.40;99.90;;;;;;5053308;28;20025;-42
2023/07/26 09:14:57;;;;;;;4.40;1.95;;;18.00;99.90;;;;;;5037835;28;20021;-49
2023/07/26 09:17:39;;;;;;;6.18;2.20;;;17.80;99.90;;;;;;5042647;28;20029;-50
2023/07/26 09:20:18;;;;;;;8.38;2.65;;;17.60;99.90;;;;;;5054005;28;20017;-44
2023/07/26 09:22:44;;;;;;;3.92;1.65;;;17.40;99.90;;;;;;5069050;28;20375;-49
2023/07/26 09:25:09;;;;;;;6.38;2.58;;;17.10;99.90;;;;;;5066392;28;20051;-45
2023/07/26 09:27:52;;;;;;;4.38;1.85;;;16.70;99.90;;;;;;5037688;28;20036;-45
2023/07/26 09:30:21;;;;;;;1.98;1.75;;;16.40;99.90;;;;;;5034691;28;20101;-48
2023/07/26 09:32:47;;;;;;;1.90;1.40;;;16.40;99.90;;;;;;5066492;28;20025;-45
2023/07/26 09:35:12;;;;;;;2.83;1.65;;;16.50;99.90;;;;;;5073998;28;20085;-50
2023/07/26 09:37:38;;;;;;;3.63;1.90;;;16.70;99.90;;;;;;5065727;28;20020;-48
2023/07/26 09:40:05;;;;;;;2.83;1.63;;;17.30;99.90;;;;;;5069752;28;20119;-45
2023/07/26 09:42:51;;;;;;;5.03;1.85;;;17.60;99.90;;;;;;5074557;28;20529;-47
2023/07/26 09:45:21;;;;;;;2.60;1.75;;;18.10;99.90;;;;;;5073872;28;20075;-49
2023/07/26 09:47:47;;;;;;;7.30;2.30;;;18.60;99.90;;;;;;5061668;28;20531;-50
2023/07/26 09:50:28;;;;;;;6.32;1.88;;;19.10;99.90;;;;;;5043690;28;20386;-45
2023/07/26 09:52:55;;;;;;;4.75;2.17;;;19.30;99.90;;;;;;5041544;28;20021;-51
2023/07/26 09:55:26;;;;;;;5.53;1.73;;;19.20;99.90;;;;;;5053191;28;20021;-43
2023/07/26 09:57:53;;;;;;;2.60;1.20;;;19.00;99.90;;;;;;5049609;28;20029;-46
2023/07/26 10:00:21;;;;;;;2.45;1.20;;;18.60;99.90;;;;;;5046670;28;20047;-42
2023/07/26 10:03:03;;;;;;;6.32;1.85;;;18.20;99.90;;;;;;5046110;28;20044;-46
2023/07/26 10:05:34;;;;;;;3.50;1.63;;;17.90;99.90;;;;;;5049322;28;20032;-48
2023/07/26 10:08:00;;;;;;;1.73;1.60;;;17.70;99.90;;;;;;5049646;28;20021;-46
2023/07/26 10:10:27;;;;;;;3.00;1.70;;;18.00;99.90;;;;;;5050116;28;20052;-50
2023/07/26 10:12:57;;;;;;;4.53;1.10;;;18.50;99.90;;;;;;5050845;28;20025;-49
2023/07/26 10:15:25;;;;;;;2.88;1.40;;;18.80;99.90;;;;;;5049591;28;20029;-50
2023/07/26 10:17:52;;;;;;;7.15;1.55;;;19.30;99.90;;;;;;5050120;28;20499;-49
2023/07/26 10:20:18;;;;;;;;;;;19.90;99.90;;;;;;5053418;28;20020;-48
2023/07/26 10:22:45;;;;;;;3.22;1.45;;;20.20;99.90;;;;;;5049103;28;19915;-53
2023/07/26 10:25:11;;;;;;;;;;;20.50;99.90;;;;;;5052262;28;20370;-53
2023/07/26 10:27:38;;;;;;;2.00;1.20;;;20.50;99.90;;;;;;5052717;28;19999;-52
2023/07/26 10:30:05;;;;;;;2.97;1.55;;;20.60;99.90;;;;;;5051787;28;20029;-53
2023/07/26 10:32:31;;;;;;;7.15;1.85;;;20.50;99.90;;;;;;5051395;28;20110;-41
2023/07/26 10:34:58;;;;;;;3.88;1.45;;;20.40;99.90;;;;;;5052757;28;20025;-39
2023/07/26 10:37:31;;;;;;;2.88;1.45;;;20.80;99.90;;;;;;5042567;28;20032;-38
2023/07/26 10:39:57;;;;;;;4.25;1.67;;;21.20;99.90;;;;;;5032713;28;20013;-37
2023/07/26 10:42:30;;;;;;;2.35;1.27;;;21.30;99.90;;;;;;5040498;28;20444;-43
2023/07/26 10:44:58;;;;;;;2.20;1.48;;;20.70;99.90;;;;;;5052899;28;20501;-44
2023/07/26 10:47:24;;;;;;;1.13;0.98;;;20.30;99.90;;;;;;5052092;28;20025;-39
2023/07/26 10:49:52;;;;;;;3.38;1.50;;;20.40;99.90;;;;;;5052914;28;20070;-41
2023/07/26 10:52:18;;;;;;;2.83;1.33;;;20.40;99.90;;;;;;5052289;28;20017;-40
2023/07/26 10:54:51;;;;;;;1.40;1.30;;;20.00;99.90;;;;;;5053072;28;20021;-41
2023/07/26 10:57:20;;;;;;;2.55;1.42;;;19.60;99.90;;;;;;5052835;28;20037;-40
2023/07/26 10:59:58;;;;;;;2.88;1.80;;;19.40;99.90;;;;;;5052118;28;20040;-45
2023/07/26 11:02:46;;;;;;;7.40;1.95;;;19.40;99.90;;;;;;5052643;28;20021;-39
2023/07/26 11:05:17;;;;;;;4.30;1.65;;;19.60;99.90;;;;;;5052773;28;20032;-40
2023/07/26 11:07:54;;;;;;;2.13;1.50;;;19.90;99.90;;;;;;5052739;28;20032;-36
2023/07/26 11:10:24;;;;;;;;;;;20.10;99.90;;;;;;5051723;28;20021;-41
2023/07/26 11:13:04;;;;;;;1.88;1.30;;;19.90;99.90;;;;;;5054098;28;19908;-40
2023/07/26 11:15:30;;;;;;;4.93;1.50;;;19.90;99.90;;;;;;5052069;28;20045;-38
2023/07/26 11:17:56;;;;;;;1.83;1.50;;;20.20;99.90;;;;;;5052603;28;20025;-45
2023/07/26 11:20:23;;;;;;;5.50;1.90;;;20.20;99.90;;;;;;5051925;28;20029;-37
2023/07/26 11:22:49;;;;;;;3.35;1.70;;;20.40;99.90;;;;;;5052341;28;20025;-39
2023/07/26 11:25:14;;;;;;;8.23;1.88;;;20.00;99.90;;;;;;5052299;28;20017;-39
2023/07/26 11:27:40;;;;;;;3.35;1.42;;;19.90;99.90;;;;;;5052594;28;20408;-37
2023/07/26 11:30:16;;;;;;;9.68;2.10;;;19.60;99.90;;;;;;5052549;28;20025;-37
2023/07/26 11:32:46;;;;;;;4.45;2.05;;;19.20;99.90;;;;;;5051709;28;20037;-41
2023/07/26 11:35:14;;;;;;;4.55;2.33;;;19.30;99.90;;;;;;5052392;28;20525;-40
2023/07/26 11:37:58;;;;;;;2.53;1.80;;;19.30;99.90;;;;;;5043577;28;20125;-38
2023/07/26 11:40:23;;;;;;;4.85;2.05;;;19.40;99.90;;;;;;5032038;28;20104;-36
2023/07/26 11:42:50;;;;;;;2.40;1.80;;;19.50;99.90;;;;;;5033756;28;20109;-49
2023/07/26 11:45:16;;;;;;;2.83;1.52;;;19.60;99.90;;;;;;5045323;28;20041;-53
2023/07/26 11:47:43;;;;;;;3.78;1.80;;;19.60;99.90;;;;;;5036342;28;20037;-54
2023/07/26 11:50:08;;;;;;;3.60;2.30;;;19.60;99.90;;;;;;5045095;28;20445;-50
2023/07/26 11:52:34;;;;;;;2.83;1.80;;;19.60;99.90;;;;;;5051999;28;20097;-53
2023/07/26 11:55:03;;;;;;;5.32;1.65;;;19.80;99.90;;;;;;5032418;28;20022;-51
2023/07/26 11:57:30;;;;;;;2.42;1.67;;;19.90;99.90;;;;;;5033554;28;20048;-53
2023/07/26 12:00:01;;;;;;;2.42;1.50;;;20.30;99.90;;;;;;5036291;28;20108;-52
2023/07/26 12:02:27;;;;;;;4.40;1.45;;;20.40;99.90;;;;;;5036224;28;20105;-49
2023/07/26 12:05:14;;;;;;;3.72;1.63;;;20.20;99.90;;;;;;5037290;28;20029;-52
2023/07/26 12:07:44;;;;;;;;;;;20.30;99.90;;;;;;5055902;28;20448;-52
2023/07/26 12:10:09;;;;;;;4.82;1.30;;;20.60;99.90;;;;;;5056107;28;20412;-50
2023/07/26 12:12:43;;;;;;;3.88;1.30;;;21.10;99.90;;;;;;5055780;28;20056;-51
2023/07/26 12:15:10;;;;;;;2.65;1.73;;;21.40;99.90;;;;;;5056108;28;20025;-52
2023/07/26 12:17:35;;;;;;;3.90;2.05;;;21.50;99.90;;;;;;5055797;28;20028;-48
2023/07/26 12:20:03;;;;;;;1.90;1.67;;;21.60;99.90;;;;;;5056044;28;20025;-51
2023/07/26 12:22:29;;;;;;;3.28;1.80;;;21.10;99.90;;;;;;5055624;28;20075;-53
2023/07/26 12:24:54;;;;;;;3.97;1.77;;;20.80;99.90;;;;;;5054884;28;20025;-52
2023/07/26 12:27:20;;;;;;;2.28;1.52;;;20.60;99.90;;;;;;5055623;28;20416;-48
2023/07/26 12:29:46;;;;;;;9.45;1.65;;;20.50;99.90;;;;;;5055852;28;20014;-52
2023/07/26 12:32:15;;;;;;;3.33;1.52;;;20.40;99.90;;;;;;5054446;28;20029;-53
2023/07/26 12:34:42;;;;;;;3.85;1.40;;;20.40;99.90;;;;;;5055788;28;20017;-54
2023/07/26 12:37:09;;;;;;;3.25;1.70;;;20.40;99.90;;;;;;5055682;28;20051;-49
2023/07/26 12:39:39;;;;;;;2.28;1.50;;;20.30;99.90;;;;;;5055731;28;20045;-52
2023/07/26 12:42:06;;;;;;;2.83;1.70;;;20.40;99.90;;;;;;5054856;28;20369;-51
2023/07/26 12:44:31;;;;;;;1.38;1.15;;;20.10;99.90;;;;;;5055166;28;20443;-51
2023/07/26 12:46:59;;;;;;;1.83;1.42;;;20.00;99.90;;;;;;5053983;28;20025;-53